Terminal Aerodrome Forecast
Issued by NWS North Platte, NE

Home | Current Version | Previous Version | Text Only | Print | Product List | Glossary Off
Versions: 1 2 3 4 5 6 7 8 9 10 11 12 13 14 15 16 17 18

022
FTUS43 KLBF 211435 AAA
TAFVTN
TAF AMD
KVTN 211435Z 2115/2212 13004KT P6SM VCSH SCT010 BKN030
     FM211700 12012KT P6SM OVC035
     FM220000 14009KT P6SM BKN050=

USA.gov is the U.S. government's official web portal to all federal, state and local government web resources and services.